Lap times 1st practice 2013 Abu Dhabi F1 Grand Prix

2013 Abu Dhabi Grand Prix

Event: Abu Dhabi Grand Prix
Track: Yas Marina Circuit

Weather: Dry
Track temperature: 45°C
Air temperature: 34°C
Wind Speed: 1.5 mps
Wind direction: South
Air Pressure: 1011.6 mBar
Humidity: 38%

FP1 Lap Times 2013 Abu Dhabi F1 GP

Pos No Driver Team Lap Time 1st Gap Laps
1 8 Romain Grosjean Lotus F1 1:44,241 21
2 10 Lewis Hamilton Mercedes 1:44,433 0,192 23
3 1 Sebastian Vettel Red Bull 1:44,499 0,258 18
4 2 Mark Webber Red Bull 1:44,712 0,471 20
5 9 Nico Rosberg Mercedes 1:44,741 0,500 24
6 7 Kimi Räikkönen Lotus F1 1:44,929 0,688 23
7 14 Paul di Resta Force India 1:45,040 0,799 20
8 5 Jenson Button McLaren 1:45,099 0,858 20
9 16 Pastor Maldonado Williams 1:45,150 0,909 24
10 6 Sergio Pérez McLaren 1:45,331 1,090 20
11 11 Nico Hülkenberg Sauber 1:45,378 1,137 23
12 3 Fernando Alonso Ferrari 1:45,440 1,199 18
13 17 Valtteri Bottas Williams 1:45,823 1,582 22
14 15 Adrian Sutil Force India 1:45,924 1,683 20
15 12 Esteban Gutierrez Sauber 1:46,068 1,827 18
16 18 Jean-Eric Vergne Toro Rosso 1:46,114 1,873 22
17 4 Felipe Massa Ferrari 1:46,124 1,883 18
18 19 Daniel Ricciardo Toro Rosso 1:46,126 1,885 21
19 20 Charles Pic Caterham 1:47,600 3,359 22
20 21 Giedo van der Garde Caterham 1:47,670 3,429 22
21 22 Jules Bianchi Manor 1:47,723 3,482 23
22 23 Rodolfo Gonzalez Manor 1:49,565 5,324 22

Highest speed: 319 km/h by Sergio Pérez, McLaren MP4-28


✅ Check out more posts with related topics:

What's your F1 fan opinion?

Your email address will not be published. Required fields are marked *

Please follow our commenting guidelines.